Tiempo atmosférico en la estación meteorológica de Aguilar de la Frontera, Córdoba (305 m.)



Fecha
DESCASC
Temp. máxima en grados centígrados (hora)
DESCASC
Temp. mínima en grados centígrados (hora)
DESCASC
Temp. media en grados centígrados
DESCASC
Racha de viento máxima en m/sg (hora)
DESCASC
Velocidad máxima media en intervalos de 10 minutos(hora)
DESCASC
Precipitaciones diarias en mm
DESCASC
Precipitaciones de 00:00 a 06:00 en mm
DESCASC
Precipitaciones de 06:00 a 12:00 en mm
DESCASC
Precipitaciones de 12:00 a 18:00 en mm
DESCASC
Precipitaciones de 18:00 a 24:00 en mm
DESCASC
13-10-2019 31.8 (16:10) 17.1 (08:50) 24.4 8.61 (17:50) 5.28 (17:10) 0 0 0 0 0
12-10-2019 30.2 (15:20) 17.9 (08:50) 24.1 8.61 (12:20) 5.83 (11:50) 0 0 0 0 0
11-10-2019 28 (16:50) 16 (08:40) 22 7.78 (01:30) 5.28 (01:30) 0 0 0 0 0
10-10-2019 30.6 (15:10) 17.8 (00:00) 24.2 10 (23:40) 6.39 (23:40) 0 0 0 0 0
09-10-2019 31.6 (18:00) 17 (00:00) 24.3 6.67 (00:10) 5 (00:20) 0 0 0 0 0
08-10-2019 31.1 (17:00) 17.8 (00:00) 24.4 8.33 (22:50) 5.28 (20:50) 0 0 0 0 0
07-10-2019 32.4 (17:10) 14.2 (00:00) 23.3 6.11 (15:00) 3.61 (07:20) 0 0 0 0 0
06-10-2019 31.3 (17:30) 13.1 (00:00) 22.2 4.44 (16:50) 2.78 (03:40) 0 0 0 0 0
05-10-2019 29.4 (18:20) 12.9 (00:00) 21.1 5.83 (15:00) 3.33 (18:40) 0 0 0 0 0
04-10-2019 30.6 (17:30) 11.4 (00:00) 21 6.39 (17:30) 3.33 (06:50) 0 0 0 0 0
03-10-2019 28.8 (18:10) 12 (00:00) 20.4 6.39 (21:10) 3.89 (15:50) 0 0 0 0 0
02-10-2019 27.9 (17:10) 12.2 (00:00) 20 7.5 (17:00) 4.72 (14:40) 0 0 0 0 0
01-10-2019 30.8 (17:40) 17.6 (00:00) 24.2 9.17 (19:30) 5.83 (19:30) 0 0 0 0 0
30-09-2019 32.1 (17:40) 15 (00:00) 23.5 4.44 (17:40) 3.06 (21:40) 0 0 0 0 0
29-09-2019 33.3 (17:40) 15.7 (00:00) 24.5 6.39 (05:40) 4.72 (05:30) 0 0 0 0 0
28-09-2019 34.1 (17:00) 14.1 (00:00) 24.1 5 (21:30) 3.89 (23:59) 0 0 0 0 0
27-09-2019 32 (17:20) 16.6 (00:00) 24.3 6.11 (07:40) 4.72 (07:40) 0 0 0 0 0
26-09-2019 32.1 (17:00) 13.4 (00:00) 22.7 5.83 (12:00) 3.61 (23:00) 0 0 0 0 0
25-09-2019 29.7 (18:00) 15 (00:00) 22.4 6.11 (16:30) 3.61 (16:30) 0 0 0 0 0
24-09-2019 31.4 (17:20) 14 (00:00) 22.7 5 (05:50) 3.89 (05:50) 0 0 0 0 0
23-09-2019 28.6 (17:40) 12.1 (00:00) 20.4 5.83 (13:40) 3.06 (15:40) 0 0 0 0 0
22-09-2019 25.5 (16:40) 17.2 (00:00) 21.4 8.33 (16:10) 5.56 (16:10) 0.4 0.4 0 0 0
21-09-2019 24.8 (17:50) 18.5 (00:00) 21.6 5.83 (16:50) 4.17 (19:00) 0.2 0.2 0 0 0
20-09-2019 27.1 (14:30) 16.8 (00:00) 21.9 8.61 (15:30) 5.56 (15:30) 0 0 0 0 0
19-09-2019 30.4 (17:40) 15 (00:00) 22.7 6.39 (15:30) 3.33 (18:00) 0 0 0 0 0
18-09-2019 28.7 (18:30) 17.2 (00:00) 23 5.28 (18:30) 3.33 (18:30) 0 0 0 0 0
17-09-2019 28.3 (13:20) 18.4 (00:00) 23.3 7.22 (14:20) 4.17 (16:20) 0 0 0 0 0

Gráficas

Temp. máximas Temp. mínimas Temp. medias Precipitaciones Rachas de viento máximas Velocidades máximas media en intervalos de 10 minutos

Datos horarios

Fecha y hora oficial Temperatura (ºC) Velocidad del viento (km/h) Dirección del viento Racha (km/h) Dirección de racha Precipitación (mm) Presión (hPa) Tendencia (hPa) Humedad (%)
2019-10-16 23:00:00 12.1 6 Sudeste 10 Este 0 -- -- 64
2019-10-16 22:00:00 13.4 5 Sudeste 7 Sudeste 0 -- -- 59
2019-10-16 21:00:00 14.5 3 Sudeste 5 Sudeste 0 -- -- 57
2019-10-16 20:00:00 18.2 0 Calma 12 Oeste 0 -- -- 43
2019-10-16 19:00:00 21.8 9 Oeste 17 Oeste 0 -- -- 30
2019-10-16 18:00:00 23 8 Oeste 14 Oeste 0 -- -- 28
2019-10-16 17:00:00 22.9 7 Oeste 14 Noroeste 0 -- -- 30
2019-10-16 16:00:00 22.6 6 Noroeste 15 Sudoeste 0 -- -- 30
2019-10-16 15:00:00 22.1 6 Noroeste 13 Oeste 0 -- -- 33
2019-10-16 14:00:00 20.9 6 Oeste 10 Oeste 0 -- -- 35
2019-10-16 13:00:00 19 5 Noroeste 8 Oeste 0 -- -- 45
2019-10-16 12:00:00 16.8 4 Oeste 8 Noroeste 0 -- -- 48
2019-10-16 11:00:00 15.4 2 Sur 5 Este 0 -- -- 54
2019-10-16 10:00:00 11.7 3 Este 6 Sudeste 0 -- -- 70
2019-10-16 09:00:00 6.7 2 Sudeste 7 Sudeste 0 -- -- 89
2019-10-16 08:00:00 6.2 4 Este 9 Sudeste 0 -- -- 86
2019-10-16 07:00:00 7.1 3 Sudeste 9 Este 0 -- -- 82
2019-10-16 06:00:00 8.1 5 Este 14 Sudeste 0 -- -- 79
2019-10-16 05:00:00 7.1 0 Calma 8 Este 0 -- -- 87
2019-10-16 04:00:00 7.7 4 Este 10 Sudeste 0 -- -- 84
2019-10-16 03:00:00 8.8 6 Sudeste 9 Sudeste 0 -- -- 80
2019-10-16 02:00:00 9.2 4 Este 10 Sudeste 0 -- -- 77
2019-10-16 01:00:00 10.3 4 Sudeste 12 Sudeste 0 -- -- 71
2019-10-16 00:00:00 9.7 6 Sudeste 10 Este 0 -- -- 81
2019-10-15 23:00:00 10.2 6 Este 10 Sudeste 0 -- -- 79
2019-10-15 22:00:00 11.2 3 Sudeste 8 Sudeste 0 -- -- 77
2019-10-15 21:00:00 12.4 4 Sudeste 7 Sudeste 0 -- -- 74
2019-10-15 20:00:00 15.3 3 Este 12 Noroeste 0 -- -- 62
2019-10-15 19:00:00 18.5 10 Noroeste 18 Oeste 0 -- -- 44
2019-10-15 18:00:00 19.9 5 Noroeste 22 Norte 0 -- -- 37
2019-10-15 17:00:00 19.3 4 Nordeste 17 Oeste 0 -- -- 42
2019-10-15 16:00:00 19 9 Noroeste 21 Oeste 0 -- -- 44
2019-10-15 15:00:00 18.4 10 Noroeste 26 Noroeste 0 -- -- 46
2019-10-15 14:00:00 17.4 7 Norte 21 Noroeste 0 -- -- 51
2019-10-15 13:00:00 16.2 10 Norte 23 Norte 0 -- -- 57
2019-10-15 12:00:00 14.8 10 Norte 20 Nordeste 0 -- -- 68
2019-10-15 11:00:00 13.7 6 Norte 13 Nordeste 0 -- -- 85
2019-10-15 10:00:00 11.5 0 Calma 2 Oeste 0 -- -- 97
2019-10-15 09:00:00 8.6 3 Sudeste 5 Este 0 -- -- 98
2019-10-15 08:00:00 8.2 3 Este 8 Sudeste 0 -- -- 96
2019-10-15 07:00:00 8.9 6 Sudeste 9 Sudeste 0 -- -- 95
2019-10-15 06:00:00 9.7 3 Sudeste 6 Este 0 -- -- 94
2019-10-15 05:00:00 10.8 0 Calma 4 Sudeste 0 -- -- 94
2019-10-15 04:00:00 11.8 0 Calma 5 Sudoeste 0 -- -- 95
2019-10-15 03:00:00 12.9 3 Sudoeste 9 Oeste 0 -- -- 96
2019-10-15 02:00:00 13.6 4 Noroeste 10 Oeste 0 -- -- 95
2019-10-15 01:00:00 14 6 Sudoeste 11 Sudoeste 0 -- -- 95
2019-10-15 00:00:00 14.5 4 Sudoeste 8 Oeste 0 -- -- 95
2019-10-14 23:00:00 14.7 8 Noroeste 27 Oeste 1.4 -- -- 94
2019-10-14 22:00:00 15 16 Sudoeste 45 Oeste 1.2 -- -- 94
2019-10-14 21:00:00 18 20 Sudoeste 39 Sudoeste 0 -- -- 65
2019-10-14 20:00:00 18 21 Sudoeste 40 Sudoeste 0 -- -- 59
2019-10-14 19:00:00 19.8 22 Sudoeste 46 Sudoeste 0 -- -- 54
2019-10-14 18:00:00 21.4 26 Sudoeste 50 Sudoeste 0 -- -- 55
2019-10-14 17:00:00 22.7 19 Sudoeste 41 Sudoeste 0 -- -- 55
2019-10-14 16:00:00 22.3 18 Sudoeste 33 Sudoeste 0 -- -- 57
2019-10-14 15:00:00 21.6 16 Sudoeste 35 Oeste 0 -- -- 58
2019-10-14 14:00:00 20.9 21 Sudoeste 41 Sudoeste 0 -- -- 60
2019-10-14 13:00:00 21.1 22 Sudoeste 37 Oeste 0 -- -- 67
2019-10-14 12:00:00 20.6 18 Sudoeste 32 Sudoeste 0 -- -- 66
2019-10-14 11:00:00 19.1 14 Sudoeste 27 Sudoeste 0 -- -- 75
2019-10-14 10:00:00 16.7 14 Sudoeste 40 Oeste 0 -- -- 90
2019-10-14 09:00:00 17.9 10 Sur 14 Sur 0 -- -- 85
2019-10-14 08:00:00 17.8 9 Sudoeste 19 Sudoeste 0 -- -- 86
2019-10-14 07:00:00 18.1 11 Sudoeste 30 Oeste 0 -- -- 86
2019-10-14 06:00:00 18.3 18 Oeste 39 Oeste 0 -- -- 81
2019-10-14 05:00:00 20.9 15 Sudoeste 31 Sudoeste 0 -- -- 67
2019-10-14 04:00:00 20.9 9 Sur 20 Sudoeste 0 -- -- 66
2019-10-14 03:00:00 21.2 8 Sur 26 Sur 0 -- -- 65
2019-10-14 02:00:00 21 19 Sur 36 Sur 0 -- -- 68
2019-10-14 01:00:00 22.1 14 Sur 27 Sudeste 0 -- -- 53
2019-10-14 00:00:00 22.7 17 Sudeste 30 Sudeste 0 -- -- 49
2019-10-13 23:00:00 23.5 11 Sudeste 22 Sudeste 0 -- -- 43
2019-10-13 22:00:00 23.6 10 Sur 22 Sudeste 0 -- -- 43
2019-10-13 21:00:00 24.6 13 Sudeste 18 Sudeste 0 -- -- 41
2019-10-13 20:00:00 26.1 10 Sur 23 Sudeste 0 -- -- 36
2019-10-13 19:00:00 29.4 14 Sur 26 Sur 0 -- -- 30
2019-10-13 18:00:00 31 18 Sur 31 Sur 0 -- -- 27
2019-10-13 17:00:00 31.6 19 Sur 30 Sur 0 -- -- 27
2019-10-13 16:00:00 31.4 15 Sur 27 Este 0 -- -- 28
2019-10-13 15:00:00 29.1 13 Sudeste 22 Sudeste 0 -- -- 40
2019-10-13 14:00:00 27 6 Sudeste 12 Este 0 -- -- 45
2019-10-13 13:00:00 24.5 5 Noroeste 10 Norte 0 -- -- 57
2019-10-13 12:00:00 22.3 5 Noroeste 13 Noroeste 0 -- -- 67
2019-10-13 11:00:00 20.8 6 Norte 13 Este 0 -- -- 75
2019-10-13 10:00:00 19.4 8 Este 14 Este 0 -- -- 80
2019-10-13 09:00:00 17.2 5 Este 13 Este 0 -- -- 90
2019-10-13 08:00:00 18.2 3 Sudeste 5 Este 0 -- -- 88
2019-10-13 07:00:00 18 2 Este 4 Nordeste 0 -- -- 89
2019-10-13 06:00:00 18.1 2 Oeste 8 Oeste 0 -- -- 89
2019-10-13 05:00:00 18.3 4 Oeste 6 Oeste 0 -- -- 89
2019-10-13 04:00:00 18.5 0 Calma 6 Sudoeste 0 -- -- 88
2019-10-13 03:00:00 18.9 3 Sudoeste 13 Oeste 0 -- -- 87
2019-10-13 02:00:00 19.1 5 Oeste 9 Oeste 0 -- -- 87
2019-10-13 01:00:00 19.2 4 Oeste 13 Oeste 0 -- -- 84
2019-10-13 00:00:00 20.6 12 Sudoeste 19 Sudoeste 0 -- -- 77
2019-10-12 23:00:00 21.6 8 Sur 18 Sudeste 0 -- -- 60
2019-10-12 22:00:00 22.6 13 Sudeste 18 Sur 0 -- -- 56
2019-10-12 21:00:00 23.9 13 Sudeste 19 Sudeste 0 -- -- 52
2019-10-12 20:00:00 25.1 13 Sur 22 Sur 0 -- -- 46
2019-10-12 19:00:00 27.8 15 Sur 23 Sur 0 -- -- 41
2019-10-12 18:00:00 29.1 14 Sur 24 Sur 0 -- -- 38
2019-10-12 17:00:00 30.2 14 Sur 28 Sur 0 -- -- 36
2019-10-12 16:00:00 29.8 17 Sudoeste 28 Sur 0 -- -- 40
2019-10-12 15:00:00 29.9 14 Sudeste 26 Sudeste 0 -- -- 35
2019-10-12 14:00:00 28.5 13 Sudeste 28 Sudeste 0 -- -- 38
2019-10-12 13:00:00 27.9 17 Sudeste 31 Sudeste 0 -- -- 41
2019-10-12 12:00:00 25.4 19 Sudeste 28 Sudeste 0 -- -- 49
2019-10-12 11:00:00 23.5 12 Sudeste 21 Sudeste 0 -- -- 58
2019-10-12 10:00:00 20.6 9 Este 21 Sudeste 0 -- -- 65
2019-10-12 09:00:00 18.1 4 Este 9 Sudeste 0 -- -- 71
2019-10-12 08:00:00 18.9 3 Nordeste 8 Sudeste 0 -- -- 67
2019-10-12 07:00:00 19.6 5 Sudeste 21 Sudeste 0 -- -- 64
2019-10-12 06:00:00 19.6 15 Sudeste 22 Sudeste 0 -- -- 63
2019-10-12 05:00:00 19.7 17 Este 26 Este 0 -- -- 63
2019-10-12 04:00:00 19.8 15 Sudeste 22 Este 0 -- -- 67
2019-10-12 03:00:00 19.8 13 Sudeste 22 Sudeste 0 -- -- 68
2019-10-12 02:00:00 20 9 Sudeste 17 Sudeste 0 -- -- 65
2019-10-12 01:00:00 20.6 13 Sudeste 21 Sudeste 0 -- -- 62
2019-10-12 00:00:00 21.2 14 Sudeste 22 Sudeste 0 -- -- 58
2019-10-11 23:00:00 21.5 10 Sudeste 19 Sudeste 0 -- -- 55
2019-10-11 22:00:00 22.1 10 Sudeste 19 Sur 0 -- -- 56
2019-10-11 21:00:00 22.5 14 Sur 23 Sudeste 0 -- -- 54
2019-10-11 20:00:00 23.5 12 Sudeste 21 Sur 0 -- -- 49
2019-10-11 19:00:00 24.8 14 Sur 24 Sur 0 -- -- 43
2019-10-11 18:00:00 26 15 Sur 27 Sur 0 -- -- 41
2019-10-11 17:00:00 28 16 Sur 23 Sur 0 -- -- 37
2019-10-11 16:00:00 27.8 12 Sur 24 Sur 0 -- -- 38
2019-10-11 15:00:00 26.1 13 Sur 23 Sur 0 -- -- 43
2019-10-11 14:00:00 26.8 15 Sur 24 Sudoeste 0 -- -- 40
2019-10-11 13:00:00 25.7 6 Sudeste 20 Sudoeste 0 -- -- 46
2019-10-11 12:00:00 24.2 7 Este 13 Este 0 -- -- 56
2019-10-11 11:00:00 21.8 0 Calma 9 Este 0 -- -- 63
2019-10-11 10:00:00 20.2 5 Este 10 Sudeste 0 -- -- 71
2019-10-11 09:00:00 16.5 9 Sudeste 10 Este 0 -- -- 85
2019-10-11 08:00:00 16.9 8 Sudeste 9 Este 0 -- -- 81
2019-10-11 07:00:00 17.5 10 Sudeste 13 Este 0 -- -- 81
2019-10-11 06:00:00 17.4 9 Sudeste 12 Este 0 -- -- 81
2019-10-11 05:00:00 18.9 3 Este 8 Sudeste 0 -- -- 77
2019-10-11 04:00:00 20.1 8 Sur 20 Sur 0 -- -- 73
2019-10-11 03:00:00 20.4 11 Sur 28 Sudeste 0 -- -- 72
2019-10-11 02:00:00 20.3 18 Sudeste 28 Sur 0 -- -- 73
2019-10-11 01:00:00 19.5 17 Sudeste 27 Sudeste 0 -- -- 79
2019-10-11 00:00:00 20.1 22 Sudeste 36 Sudeste 0 -- -- 77
2019-10-10 23:00:00 20.4 20 Sudeste 30 Sudeste 0 -- -- 74
2019-10-10 22:00:00 21.5 18 Sudeste 28 Sudeste 0 -- -- 68
2019-10-10 21:00:00 22.7 9 Sudeste 19 Sur 0 -- -- 62
2019-10-10 20:00:00 24.9 4 Este 22 Sur 0 -- -- 52
2019-10-10 19:00:00 27.6 17 Sur 26 Sur 0 -- -- 43
2019-10-10 18:00:00 29.6 14 Sur 28 Sur 0 -- -- 41
2019-10-10 17:00:00 30.1 18 Sur 27 Sudoeste 0 -- -- 40
2019-10-10 16:00:00 30.4 15 Sur 28 Sur 0 -- -- 41
2019-10-10 15:00:00 30.4 11 Sur 25 Sur 0 -- -- 39
2019-10-10 14:00:00 29.6 12 Sudeste 24 Sur 0 -- -- 43
2019-10-10 13:00:00 28.1 15 Sur 24 Sur 0 -- -- 46
2019-10-10 12:00:00 27 14 Sur 26 Sudeste 0 -- -- 47
2019-10-10 11:00:00 23.9 19 Sudeste 26 Sudeste 0 -- -- 55
2019-10-10 10:00:00 21.5 17 Sudeste 26 Sudeste 0 -- -- 59
2019-10-10 09:00:00 18.7 14 Sudeste 20 Sudeste 0 -- -- 65
2019-10-10 08:00:00 18.5 14 Sudeste 22 Sudeste 0 -- -- 64
2019-10-10 07:00:00 18.9 14 Sudeste 22 Sudeste 0 -- -- 62
2019-10-10 06:00:00 18.9 13 Sudeste 20 Sudeste 0 -- -- 61
2019-10-10 05:00:00 19.2 15 Sudeste 19 Sudeste 0 -- -- 61
2019-10-10 04:00:00 19.8 13 Sudeste 20 Sudeste 0 -- -- 57
2019-10-10 03:00:00 20.4 16 Sudeste 20 Sudeste 0 -- -- 56
2019-10-10 02:00:00 20.4 13 Sudeste 15 Sudeste 0 -- -- 56
2019-10-10 01:00:00 21.3 3 Sudeste 17 Sudeste 0 -- -- 54
2019-10-10 00:00:00 21 6 Sudeste 10 Sudeste 0 -- -- 55
2019-10-09 23:00:00 22 4 Sudeste 10 Este 0 -- -- 53
2019-10-09 22:00:00 21.6 0 Calma 5 Sur 0 -- -- 54
2019-10-09 21:00:00 23.5 5 Sudeste 11 Sudeste 0 -- -- 50
2019-10-09 20:00:00 28 2 Este 11 Oeste 0 -- -- 40
2019-10-09 19:00:00 31 6 Sudoeste 11 Sudoeste 0 -- -- 34
2019-10-09 18:00:00 31.6 7 Oeste 12 Sudoeste 0 -- -- 33
2019-10-09 17:00:00 31.3 8 Sudoeste 14 Oeste 0 -- -- 33
2019-10-09 16:00:00 30.1 5 Noroeste 13 Sudoeste 0 -- -- 37
2019-10-09 15:00:00 29.2 7 Oeste 12 Oeste 0 -- -- 38
2019-10-09 14:00:00 27.7 4 Noroeste 10 Oeste 0 -- -- 41
2019-10-09 13:00:00 25.7 4 Noroeste 10 Noroeste 0 -- -- 47
2019-10-09 12:00:00 24.4 5 Sudoeste 13 Sur 0 -- -- 50
2019-10-09 11:00:00 22.9 7 Sur 18 Sudeste 0 -- -- 54
2019-10-09 10:00:00 20.8 12 Sudeste 21 Sudeste 0 -- -- 61
2019-10-09 09:00:00 17.7 16 Sudeste 22 Sudeste 0 -- -- 71
2019-10-09 08:00:00 17 13 Sudeste 22 Sudeste 0 -- -- 77
2019-10-09 07:00:00 17.4 10 Sudeste 19 Sudeste 0 -- -- 70
2019-10-09 06:00:00 18.2 13 Sudeste 19 Sudeste 0 -- -- 71
2019-10-09 05:00:00 18.4 14 Sudeste 23 Sudeste 0 -- -- 71
2019-10-09 04:00:00 19 15 Sudeste 23 Sudeste 0 -- -- 68
2019-10-09 03:00:00 19.3 16 Sudeste 23 Este 0 -- -- 66
2019-10-09 02:00:00 19.8 17 Sudeste 23 Sudeste 0 -- -- 65
2019-10-09 01:00:00 20.3 15 Sudeste 24 Sudeste 0 -- -- 66
2019-10-09 00:00:00 20.8 17 Sudeste 25 Sudeste 0 -- -- 63
2019-10-08 23:00:00 21.7 16 Sudeste 30 Sudeste 0 -- -- 58
2019-10-08 22:00:00 22.9 17 Sudeste 26 Sudeste 0 -- -- 51
2019-10-08 21:00:00 24.2 17 Sudeste 28 Sudeste 0 -- -- 46
2019-10-08 20:00:00 26.1 13 Sur 22 Sur 0 -- -- 38
2019-10-08 19:00:00 29 12 Sur 24 Sur 0 -- -- 34
2019-10-08 18:00:00 30.6 12 Sur 26 Sur 0 -- -- 32
2019-10-08 17:00:00 31.1 13 Sur 25 Sur 0 -- -- 30
2019-10-08 16:00:00 30.9 16 Sur 27 Sudoeste 0 -- -- 30
2019-10-08 15:00:00 30.5 15 Sur 28 Sudoeste 0 -- -- 33
2019-10-08 14:00:00 30.2 14 Sur 24 Sur 0 -- -- 35
2019-10-08 13:00:00 29.4 12 Sur 21 Sur 0 -- -- 32
2019-10-08 12:00:00 26.8 14 Sudeste 23 Sudeste 0 -- -- 36
2019-10-08 11:00:00 24.3 13 Sudeste 25 Sudeste 0 -- -- 44
2019-10-08 10:00:00 21.7 13 Sudeste 26 Sudeste 0 -- -- 51
2019-10-08 09:00:00 19.3 13 Sudeste 24 Sudeste 0 -- -- 56
2019-10-08 08:00:00 18.7 14 Sudeste 21 Sudeste 0 -- -- 52
2019-10-08 07:00:00 18.7 9 Sudeste 22 Sudeste 0 -- -- 49
2019-10-08 06:00:00 19 15 Sudeste 20 Este 0 -- -- 47
2019-10-08 05:00:00 18.5 5 Este 11 Este 0 -- -- 48
2019-10-08 04:00:00 18.1 8 Este 12 Sudeste 0 -- -- 49
2019-10-08 03:00:00 18.6 2 Sudoeste 13 Sudoeste 0 -- -- 55
2019-10-08 02:00:00 21 5 Este 16 Sudeste 0 -- -- 41
2019-10-08 01:00:00 20.3 4 Nordeste 8 Nordeste 0 -- -- 42
2019-10-08 00:00:00 19.9 5 Este 10 Sudeste 0 -- -- 44
2019-10-07 23:00:00 21.3 6 Este 8 Sudeste 0 -- -- 41
2019-10-07 22:00:00 23.1 0 Calma 7 Este 0 -- -- 36
2019-10-07 21:00:00 24.8 5 Este 7 Este 0 -- -- 33
2019-10-07 20:00:00 29.3 2 Nordeste 9 Nordeste 0 -- -- 27
2019-10-07 19:00:00 31.7 6 Norte 15 Nordeste 0 -- -- 22
2019-10-07 18:00:00 32.1 9 Norte 17 Norte 0 -- -- 22
2019-10-07 17:00:00 32.1 10 Nordeste 20 Noroeste 0 -- -- 21
2019-10-07 16:00:00 31.8 10 Nordeste 19 Nordeste 0 -- -- 20
2019-10-07 15:00:00 31.2 10 Noroeste 22 Noroeste 0 -- -- 26
2019-10-07 14:00:00 29.2 5 Noroeste 12 Noroeste 0 -- -- 31
2019-10-07 13:00:00 26.9 6 Oeste 10 Oeste 0 -- -- 37
2019-10-07 12:00:00 24.7 4 Noroeste 12 Norte 0 -- -- 41
2019-10-07 11:00:00 22.5 5 Norte 9 Norte 0 -- -- 46
2019-10-07 10:00:00 20.7 2 Este 5 Este 0 -- -- 51
2019-10-07 09:00:00 15.3 0 Calma 8 Este 0 -- -- 64
2019-10-07 08:00:00 15.4 7 Este 14 Sudeste 0 -- -- 61
2019-10-07 07:00:00 15.2 12 Sudeste 15 Sudeste 0 -- -- 62
2019-10-07 06:00:00 15.3 7 Sudeste 12 Sudeste 0 -- -- 62
2019-10-07 05:00:00 15.3 0 Calma 12 Sudeste 0 -- -- 61
2019-10-07 04:00:00 15.2 5 Sudeste 9 Sudeste 0 -- -- 62
2019-10-07 03:00:00 15.7 0 Calma 9 Sudeste 0 -- -- 63
2019-10-07 02:00:00 17.7 4 Este 14 Este 0 -- -- 57
2019-10-07 01:00:00 17.6 10 Sudeste 13 Sudeste 0 -- -- 56
2019-10-07 00:00:00 18.4 0 Calma 9 Sudoeste 0 -- -- 50
2019-10-06 23:00:00 18.4 3 Sudeste 4 Sur 0 -- -- 47
2019-10-06 22:00:00 19.7 0 Calma 5 Sur 0 -- -- 43
2019-10-06 21:00:00 21.7 0 Calma 4 Este 0 -- -- 40
2019-10-06 20:00:00 26 0 Calma 9 Oeste 0 -- -- 33
2019-10-06 19:00:00 28.8 6 Oeste 13 Sudoeste 0 -- -- 29
2019-10-06 18:00:00 30.8 8 Oeste 14 Oeste 0 -- -- 22
2019-10-06 17:00:00 30.8 6 Oeste 16 Oeste 0 -- -- 23
2019-10-06 16:00:00 30.4 8 Oeste 14 Oeste 0 -- -- 25
2019-10-06 15:00:00 29.3 6 Noroeste 15 Oeste 0 -- -- 32
2019-10-06 14:00:00 27.4 5 Oeste 13 Oeste 0 -- -- 40
2019-10-06 13:00:00 25.9 10 Noroeste 14 Oeste 0 -- -- 45
2019-10-06 12:00:00 23.5 4 Norte 12 Noroeste 0 -- -- 51
2019-10-06 11:00:00 21.3 6 Noroeste 10 Norte 0 -- -- 60
2019-10-06 10:00:00 18.7 0 Calma 9 Este 0 -- -- 66
2019-10-06 09:00:00 14.6 7 Sudeste 13 Sudeste 0 -- -- 81
2019-10-06 08:00:00 13.5 0 Calma 9 Sudeste 0 -- -- 82
2019-10-06 07:00:00 13.8 3 Este 11 Sudeste 0 -- -- 81
2019-10-06 06:00:00 15.1 0 Calma 10 Este 0 -- -- 77
2019-10-06 05:00:00 15 4 Este 9 Sudeste 0 -- -- 77
2019-10-06 04:00:00 15.8 6 Sudeste 12 Sudeste 0 -- -- 74
2019-10-06 03:00:00 15.8 6 Sudeste 10 Sudeste 0 -- -- 74
2019-10-06 02:00:00 17 3 Sur 5 Sudeste 0 -- -- 71
2019-10-06 01:00:00 17.5 3 Sur 6 Sudoeste 0 -- -- 69
2019-10-06 00:00:00 18.7 3 Sudoeste 13 Sudoeste 0 -- -- 65
2019-10-05 23:00:00 18.8 4 Sur 5 Sur 0 -- -- 61
2019-10-05 22:00:00 20.5 0 Calma 5 Sur 0 -- -- 57
2019-10-05 21:00:00 22.8 2 Sudoeste 8 Sudoeste 0 -- -- 50
2019-10-05 20:00:00 25.6 6 Sudoeste 13 Oeste 0 -- -- 45
2019-10-05 19:00:00 27.9 9 Sudoeste 19 Oeste 0 -- -- 37
2019-10-05 18:00:00 28.7 8 Oeste 16 Sudoeste 0 -- -- 34
2019-10-05 17:00:00 28 8 Oeste 17 Oeste 0 -- -- 39
2019-10-05 16:00:00 28.1 9 Oeste 18 Oeste 0 -- -- 42
2019-10-05 15:00:00 27.4 8 Oeste 21 Oeste 0 -- -- 45
2019-10-05 14:00:00 26.2 9 Oeste 15 Oeste 0 -- -- 50
2019-10-05 13:00:00 24.6 6 Oeste 14 Oeste 0 -- -- 55
2019-10-05 12:00:00 23 6 Oeste 9 Oeste 0 -- -- 59
2019-10-05 11:00:00 21.3 3 Oeste 6 Noroeste 0 -- -- 68
2019-10-05 10:00:00 18.6 2 Norte 5 Nordeste 0 -- -- 76
2019-10-05 09:00:00 14.2 3 Este 4 Este 0 -- -- 90
2019-10-05 08:00:00 13.2 2 Este 5 Este 0 -- -- 89
2019-10-05 07:00:00 13.5 0 Calma 8 Este 0 -- -- 87
2019-10-05 06:00:00 14 6 Este 9 Este 0 -- -- 86
2019-10-05 05:00:00 15.4 4 Este 12 Sudeste 0 -- -- 80
2019-10-05 04:00:00 14.9 6 Este 10 Este 0 -- -- 80
2019-10-05 03:00:00 15.8 4 Sudeste 9 Sudeste 0 -- -- 76
2019-10-05 02:00:00 16 5 Este 9 Este 0 -- -- 74
2019-10-05 01:00:00 17.6 3 Sudeste 6 Sur 0 -- -- 68
2019-10-05 00:00:00 19.6 2 Sudoeste 9 Sudoeste 0 -- -- 60
2019-10-04 23:00:00 19.5 3 Sur 9 Sur 0 -- -- 51
2019-10-04 22:00:00 21.5 2 Este 9 Sudoeste 0 -- -- 44
2019-10-04 21:00:00 23.5 6 Sudoeste 9 Sudoeste 0 -- -- 40
2019-10-04 20:00:00 26 8 Oeste 16 Oeste 0 -- -- 35
2019-10-04 19:00:00 29 12 Oeste 18 Oeste 0 -- -- 30
2019-10-04 18:00:00 30.3 9 Oeste 23 Oeste 0 -- -- 26
2019-10-04 17:00:00 30.1 6 Noroeste 15 Oeste 0 -- -- 26
2019-10-04 16:00:00 29.9 10 Oeste 15 Noroeste 0 -- -- 26
2019-10-04 15:00:00 28.9 7 Noroeste 13 Noroeste 0 -- -- 31
2019-10-04 14:00:00 27.2 4 Oeste 10 Oeste 0 -- -- 35
2019-10-04 13:00:00 25.3 6 Oeste 9 Oeste 0 -- -- 38
2019-10-04 12:00:00 22.5 3 Noroeste 9 Norte 0 -- -- 44
2019-10-04 11:00:00 20.8 5 Norte 10 Norte 0 -- -- 52
2019-10-04 10:00:00 17.4 2 Noroeste 7 Este 0 -- -- 62
2019-10-04 09:00:00 13.9 0 Calma 9 Este 0 -- -- 74
2019-10-04 08:00:00 12.1 5 Este 10 Este 0 -- -- 78
2019-10-04 07:00:00 12.2 5 Sudeste 14 Sudeste 0 -- -- 79
2019-10-04 06:00:00 11.8 2 Sudeste 6 Este 0 -- -- 78
2019-10-04 05:00:00 12.7 5 Este 10 Este 0 -- -- 74
2019-10-04 04:00:00 13.2 9 Sudeste 11 Sudeste 0 -- -- 77
2019-10-04 03:00:00 13.4 3 Sudeste 9 Sudeste 0 -- -- 76
2019-10-04 02:00:00 14.2 4 Sudeste 10 Sudeste 0 -- -- 72
2019-10-04 01:00:00 15.9 3 Sudeste 8 Sudeste 0 -- -- 65
2019-10-04 00:00:00 18.2 3 Sudoeste 12 Oeste 0 -- -- 56
2019-10-03 23:00:00 19.7 5 Oeste 14 Sudoeste 0 -- -- 47
2019-10-03 22:00:00 20.7 4 Sur 23 Sudoeste 0 -- -- 40
2019-10-03 21:00:00 22.7 12 Sudoeste 20 Oeste 0 -- -- 37
2019-10-03 20:00:00 24.6 8 Oeste 19 Oeste 0 -- -- 37
2019-10-03 19:00:00 27.8 12 Oeste 18 Oeste 0 -- -- 32
2019-10-03 18:00:00 28.6 6 Oeste 21 Sudoeste 0 -- -- 31
2019-10-03 17:00:00 28.1 8 Sudoeste 22 Noroeste 0 -- -- 33
2019-10-03 16:00:00 27.2 10 Oeste 21 Oeste 0 -- -- 34
2019-10-03 15:00:00 26.3 9 Oeste 15 Sudoeste 0 -- -- 41
2019-10-03 14:00:00 24.3 8 Oeste 15 Oeste 0 -- -- 49
2019-10-03 13:00:00 22.3 7 Sudoeste 14 Oeste 0 -- -- 57
2019-10-03 12:00:00 20.5 6 Oeste 13 Oeste 0 -- -- 68
2019-10-03 11:00:00 18.6 9 Oeste 12 Oeste 0 -- -- 75
2019-10-03 10:00:00 17.2 2 Sur 8 Este 0 -- -- 78
2019-10-03 09:00:00 13.6 7 Este 9 Este 0 -- -- 84
2019-10-03 08:00:00 12.6 5 Sudeste 8 Este 0 -- -- 87
2019-10-03 07:00:00 12.4 5 Sudeste 7 Sudeste 0 -- -- 86
2019-10-03 06:00:00 12.8 0 Calma 9 Este 0 -- -- 84
2019-10-03 05:00:00 12.7 4 Sudeste 8 Este 0 -- -- 84
2019-10-03 04:00:00 14.1 5 Este 13 Este 0 -- -- 79
2019-10-03 03:00:00 14.1 5 Sudeste 9 Este 0 -- -- 79
2019-10-03 02:00:00 15.2 8 Sudeste 11 Este 0 -- -- 77
2019-10-03 01:00:00 16.8 3 Sudeste 14 Oeste 0 -- -- 71
2019-10-03 00:00:00 18 8 Oeste 24 Oeste 0 -- -- 67
2019-10-02 23:00:00 19.4 9 Oeste 17 Oeste 0 -- -- 58
2019-10-02 22:00:00 20.5 8 Sudoeste 21 Oeste 0 -- -- 46
2019-10-02 21:00:00 21.5 5 Sudoeste 11 Sudoeste 0 -- -- 36
2019-10-02 20:00:00 24.1 6 Sudoeste 19 Oeste 0 -- -- 34
2019-10-02 19:00:00 25.9 16 Sudoeste 24 Oeste 0 -- -- 33
2019-10-02 18:00:00 27.6 13 Oeste 25 Sudoeste 0 -- -- 29
2019-10-02 17:00:00 27.8 13 Oeste 27 Oeste 0 -- -- 29
2019-10-02 16:00:00 26.8 13 Oeste 24 Oeste 0 -- -- 35
2019-10-02 15:00:00 25.9 13 Oeste 26 Oeste 0 -- -- 39
2019-10-02 14:00:00 24.6 14 Oeste 24 Oeste 0 -- -- 42
2019-10-02 13:00:00 23.4 13 Oeste 20 Oeste 0 -- -- 48
2019-10-02 12:00:00 21.7 9 Oeste 15 Oeste 0 -- -- 54
2019-10-02 11:00:00 19.6 5 Oeste 11 Oeste 0 -- -- 60
2019-10-02 10:00:00 17.7 8 Oeste 10 Sudoeste 0 -- -- 68
2019-10-02 09:00:00 12.9 0 Calma 9 Sudeste 0 -- -- 86
2019-10-02 08:00:00 12.4 0 Calma 11 Sudeste 0 -- -- 83
2019-10-02 07:00:00 13 0 Calma 10 Sudeste 0 -- -- 81
2019-10-02 06:00:00 13.9 5 Sudeste 9 Sudeste 0 -- -- 80
2019-10-02 05:00:00 14.6 2 Este 6 Sur 0 -- -- 78
2019-10-02 04:00:00 15.8 0 Calma 5 Sudoeste 0 -- -- 74
2019-10-02 03:00:00 16.7 0 Calma 5 Sudoeste 0 -- -- 72
2019-10-02 02:00:00 17.4 0 Calma 6 Sudoeste 0 -- -- 67
2019-10-02 01:00:00 18.8 0 Calma 12 Sudoeste 0 -- -- 58
2019-10-02 00:00:00 20.4 8 Sudoeste 14 Oeste 0 -- -- 53
2019-10-01 23:00:00 21.7 7 Oeste 18 Noroeste 0 -- -- 49
2019-10-01 22:00:00 22.9 9 Noroeste 18 Noroeste 0 -- -- 46
2019-10-01 21:00:00 24.5 12 Noroeste 24 Noroeste 0 -- -- 40
2019-10-01 20:00:00 26.8 16 Noroeste 33 Noroeste 0 -- -- 35
2019-10-01 19:00:00 28.7 19 Noroeste 27 Oeste 0 -- -- 29
2019-10-01 18:00:00 30.4 16 Oeste 30 Oeste 0 -- -- 25
2019-10-01 17:00:00 30.5 14 Oeste 27 Oeste 0 -- -- 26
2019-10-01 16:00:00 29.7 14 Oeste 25 Noroeste 0 -- -- 27
2019-10-01 15:00:00 29.2 14 Oeste 24 Oeste 0 -- -- 29
2019-10-01 14:00:00 27.6 13 Oeste 21 Oeste 0 -- -- 34
2019-10-01 13:00:00 26.4 9 Sudoeste 20 Oeste 0 -- -- 36
2019-10-01 12:00:00 24.8 11 Sudoeste 18 Sudoeste 0 -- -- 35
2019-10-01 11:00:00 23 6 Oeste 10 Oeste 0 -- -- 40
2019-10-01 10:00:00 21.8 0 Calma 9 Oeste 0 -- -- 52
2019-10-01 09:00:00 18.8 8 Sudeste 18 Sudeste 0 -- -- 56
2019-10-01 08:00:00 18.9 14 Sudeste 18 Sudeste 0 -- -- 55
2019-10-01 07:00:00 18.7 14 Sudeste 23 Sudeste 0 -- -- 56
2019-10-01 06:00:00 17.8 15 Sudeste 18 Este 0 -- -- 60
2019-10-01 05:00:00 18.6 12 Sudeste 15 Sudeste 0 -- -- 58
2019-10-01 04:00:00 18 3 Sudeste 5 Sur 0 -- -- 61
2019-10-01 03:00:00 17.9 3 Sur 7 Sudeste 0 -- -- 62
2019-10-01 02:00:00 18.9 5 Sur 8 Sur 0 -- -- 59
2019-10-01 01:00:00 19.4 0 Calma 4 Sudeste 0 -- -- 58
2019-10-01 00:00:00 20 2 Sudeste 8 Sudeste 0 -- -- 55
2019-09-30 23:00:00 20.8 2 Sur 8 Sudeste 0 -- -- 52
2019-09-30 22:00:00 22.4 3 Sudeste 13 Sudeste 0 -- -- 48
2019-09-30 21:00:00 24.1 8 Sudeste 9 Sudeste 0 -- -- 45
2019-09-30 20:00:00 29.2 0 Calma 9 Noroeste 0 -- -- 34
2019-09-30 19:00:00 31.9 7 Oeste 15 Sudoeste 0 -- -- 28
2019-09-30 18:00:00 31.7 8 Oeste 16 Sudoeste 0 -- -- 32
2019-09-30 17:00:00 31.5 4 Oeste 12 Noroeste 0 -- -- 31
2019-09-30 16:00:00 31.1 7 Noroeste 12 Sudoeste 0 -- -- 33
2019-09-30 15:00:00 30.3 4 Oeste 12 Oeste 0 -- -- 40
2019-09-30 14:00:00 28.2 4 Oeste 10 Oeste 0 -- -- 47
2019-09-30 13:00:00 26.9 4 Oeste 9 Sudoeste 0 -- -- 53
2019-09-30 12:00:00 24.9 4 Norte 8 Norte 0 -- -- 58
2019-09-30 11:00:00 22.4 4 Oeste 7 Noroeste 0 -- -- 64
2019-09-30 10:00:00 19.8 0 Calma 6 Oeste 0 -- -- 71
2019-09-30 09:00:00 16.3 3 Sudeste 10 Sudeste 0 -- -- 84
2019-09-30 08:00:00 15.1 5 Sudeste 9 Este 0 -- -- 86
2019-09-30 07:00:00 15.9 0 Calma 7 Este 0 -- -- 83
2019-09-30 06:00:00 16.6 6 Este 9 Este 0 -- -- 82
2019-09-30 05:00:00 17.4 7 Este 11 Sudeste 0 -- -- 78
2019-09-30 04:00:00 18.1 4 Sudeste 9 Sudeste 0 -- -- 75
2019-09-30 03:00:00 18.3 2 Sur 10 Sudeste 0 -- -- 78
2019-09-30 02:00:00 18.9 5 Sudeste 10 Sur 0 -- -- 74
2019-09-30 01:00:00 20.6 5 Sur 8 Sur 0 -- -- 69
2019-09-30 00:00:00 22.3 3 Sudoeste 6 Sudoeste 0 -- -- 59
2019-09-29 23:00:00 23 3 Oeste 14 Sudoeste 0 -- -- 47
2019-09-29 22:00:00 24.1 4 Sudoeste 6 Sudoeste 0 -- -- 42
2019-09-29 21:00:00 25.8 0 Calma 10 Sudoeste 0 -- -- 36
2019-09-29 20:00:00 29 7 Oeste 22 Oeste 0 -- -- 30
2019-09-29 19:00:00 31.9 12 Oeste 19 Oeste 0 -- -- 27
2019-09-29 18:00:00 32.9 11 Oeste 19 Oeste 0 -- -- 26
2019-09-29 17:00:00 33 9 Oeste 17 Sudoeste 0 -- -- 26
2019-09-29 16:00:00 32.8 10 Oeste 19 Noroeste 0 -- -- 29
2019-09-29 15:00:00 32 9 Oeste 15 Oeste 0 -- -- 29
2019-09-29 14:00:00 30.6 4 Oeste 9 Oeste 0 -- -- 30
2019-09-29 13:00:00 29 4 Noroeste 9 Noroeste 0 -- -- 33
2019-09-29 12:00:00 26.7 6 Noroeste 8 Oeste 0 -- -- 39
2019-09-29 11:00:00 25.4 3 Este 13 Sudeste 0 -- -- 40
2019-09-29 10:00:00 22.6 5 Sur 11 Sudeste 0 -- -- 48
2019-09-29 09:00:00 17 0 Calma 6 Este 0 -- -- 69
2019-09-29 08:00:00 16.4 3 Nordeste 6 Noroeste 0 -- -- 67
2019-09-29 07:00:00 18.7 4 Noroeste 22 Este 0 -- -- 60
2019-09-29 06:00:00 19.7 15 Sudeste 23 Sudeste 0 -- -- 56
2019-09-29 05:00:00 19.4 15 Sudeste 20 Sudeste 0 -- -- 58
2019-09-29 04:00:00 19.9 15 Sudeste 19 Sudeste 0 -- -- 57
2019-09-29 03:00:00 20.2 13 Sudeste 19 Sudeste 0 -- -- 56
2019-09-29 02:00:00 21.2 15 Sudeste 19 Sudeste 0 -- -- 52
2019-09-29 01:00:00 21.5 9 Sudeste 19 Sudeste 0 -- -- 51
2019-09-29 00:00:00 22.6 14 Sudeste 17 Sudeste 0 -- -- 48
2019-09-28 23:00:00 24.5 8 Sur 15 Sudeste 0 -- -- 44
2019-09-28 22:00:00 25.6 11 Sudeste 18 Sur 0 -- -- 43
2019-09-28 21:00:00 27.4 10 Sur 17 Sur 0 -- -- 38
2019-09-28 20:00:00 30.8 4 Oeste 12 Oeste 0 -- -- 28
2019-09-28 19:00:00 33.1 9 Oeste 14 Noroeste 0 -- -- 23
2019-09-28 18:00:00 34.1 9 Oeste 13 Oeste 0 -- -- 22
2019-09-28 17:00:00 34.1 6 Noroeste 14 Sudoeste 0 -- -- 20
2019-09-28 16:00:00 33.9 10 Oeste 14 Oeste 0 -- -- 20
2019-09-28 15:00:00 32.2 6 Noroeste 11 Noroeste 0 -- -- 28
2019-09-28 14:00:00 30.7 5 Noroeste 10 Oeste 0 -- -- 31
2019-09-28 13:00:00 28.7 6 Noroeste 8 Noroeste 0 -- -- 35
2019-09-28 12:00:00 26.8 4 Noroeste 8 Oeste 0 -- -- 37
2019-09-28 11:00:00 24.8 3 Sudoeste 11 Sur 0 -- -- 41
2019-09-28 10:00:00 21.4 2 Noroeste 9 Sudeste 0 -- -- 56
2019-09-28 09:00:00 16.9 3 Sudeste 10 Sudeste 0 -- -- 67
2019-09-28 08:00:00 14.2 4 Este 6 Este 0 -- -- 73
2019-09-28 07:00:00 15.1 0 Calma 4 Este 0 -- -- 67
2019-09-28 06:00:00 16.8 6 Este 10 Este 0 -- -- 62
2019-09-28 05:00:00 17.7 4 Este 12 Este 0 -- -- 58
2019-09-28 04:00:00 18 8 Este 14 Sudeste 0 -- -- 58
2019-09-28 03:00:00 16.9 6 Este 12 Sudeste 0 -- -- 63
2019-09-28 02:00:00 17.5 8 Sudeste 11 Sudeste 0 -- -- 62
2019-09-28 01:00:00 18.2 4 Sur 8 Sudeste 0 -- -- 57
2019-09-28 00:00:00 19.2 2 Sur 8 Sudoeste 0 -- -- 49
2019-09-27 23:00:00 19.7 3 Sur 6 Sudoeste 0 -- -- 48
2019-09-27 22:00:00 20.7 2 Sur 4 Sur 0 -- -- 45
2019-09-27 21:00:00 23.7 0 Calma 5 Sur 0 -- -- 39
2019-09-27 20:00:00 29.3 4 Sudoeste 15 Oeste 0 -- -- 27
2019-09-27 19:00:00 31.2 11 Oeste 18 Oeste 0 -- -- 25
2019-09-27 18:00:00 31.8 8 Oeste 20 Oeste 0 -- -- 27
2019-09-27 17:00:00 31.3 5 Oeste 20 Oeste 0 -- -- 27
2019-09-27 16:00:00 31.2 10 Oeste 19 Oeste 0 -- -- 27
2019-09-27 15:00:00 31.1 8 Noroeste 16 Oeste 0 -- -- 29
2019-09-27 14:00:00 29.7 5 Noroeste 11 Oeste 0 -- -- 31
2019-09-27 13:00:00 28.2 5 Noroeste 10 Noroeste 0 -- -- 36
2019-09-27 12:00:00 26.4 7 Noroeste 10 Noroeste 0 -- -- 39
2019-09-27 11:00:00 23.4 4 Noroeste 8 Este 0 -- -- 50
2019-09-27 10:00:00 21.7 6 Este 17 Sudeste 0 -- -- 53
2019-09-27 09:00:00 17.8 12 Sudeste 18 Sudeste 0 -- -- 63
2019-09-27 08:00:00 16.8 14 Sudeste 22 Sudeste 0 -- -- 65
2019-09-27 07:00:00 17.8 11 Sudeste 17 Sudeste 0 -- -- 64
2019-09-27 06:00:00 17.4 10 Sudeste 17 Sudeste 0 -- -- 65
2019-09-27 05:00:00 18.2 11 Sudeste 17 Sudeste 0 -- -- 62
2019-09-27 04:00:00 18.1 10 Sudeste 14 Sudeste 0 -- -- 63
2019-09-27 03:00:00 17.6 8 Sudeste 11 Sudeste 0 -- -- 64
2019-09-27 02:00:00 18.5 5 Sudeste 8 Sudeste 0 -- -- 60
2019-09-27 01:00:00 20.6 6 Sur 9 Sur 0 -- -- 51
2019-09-27 00:00:00 20 2 Oeste 12 Sudeste 0 -- -- 59
2019-09-26 23:00:00 21.3 13 Sudeste 15 Sudeste 0 -- -- 49
2019-09-26 22:00:00 21.3 8 Este 9 Sudeste 0 -- -- 48
2019-09-26 21:00:00 23.6 4 Este 5 Este 0 -- -- 44
2019-09-26 20:00:00 29.9 2 Noroeste 13 Noroeste 0 -- -- 32
2019-09-26 19:00:00 30.9 10 Oeste 19 Oeste 0 -- -- 28
2019-09-26 18:00:00 31.8 6 Noroeste 15 Oeste 0 -- -- 29
2019-09-26 17:00:00 32.1 6 Oeste 17 Oeste 0 -- -- 28
2019-09-26 16:00:00 31.3 6 Oeste 17 Oeste 0 -- -- 28
2019-09-26 15:00:00 30.3 5 Sudoeste 15 Sudoeste 0 -- -- 30
2019-09-26 14:00:00 29.4 8 Oeste 13 Sur 0 -- -- 31
2019-09-26 13:00:00 28.2 6 Sur 14 Este 0 -- -- 34
2019-09-26 12:00:00 26.4 9 Sudeste 21 Este 0 -- -- 38
2019-09-26 11:00:00 24.1 9 Este 19 Sudeste 0 -- -- 43
2019-09-26 10:00:00 20.8 5 Sudeste 9 Sudeste 0 -- -- 51
2019-09-26 09:00:00 15.1 0 Calma 8 Este 0 -- -- 73
2019-09-26 08:00:00 13.6 5 Este 9 Sudeste 0 -- -- 73
2019-09-26 07:00:00 13.6 5 Este 9 Sudeste 0 -- -- 75
2019-09-26 06:00:00 13.7 8 Sudeste 9 Sudeste 0 -- -- 78
2019-09-26 05:00:00 14 4 Este 7 Sur 0 -- -- 77
2019-09-26 04:00:00 14.7 2 Este 7 Sudeste 0 -- -- 75
2019-09-26 03:00:00 15.4 4 Sudeste 8 Sudeste 0 -- -- 71
2019-09-26 02:00:00 16.1 0 Calma 5 Este 0 -- -- 66
2019-09-26 01:00:00 17.6 0 Calma 9 Sudeste 0 -- -- 64
2019-09-26 00:00:00 18.1 4 Este 11 Sudeste 0 -- -- 57
2019-09-25 23:00:00 18.4 6 Sudeste 9 Sudeste 0 -- -- 59
2019-09-25 22:00:00 20 7 Sudeste 9 Sudeste 0 -- -- 55
2019-09-25 21:00:00 22.5 0 Calma 8 Oeste 0 -- -- 48
2019-09-25 20:00:00 26.8 7 Oeste 16 Oeste 0 -- -- 36
2019-09-25 19:00:00 28.9 10 Oeste 21 Oeste 0 -- -- 31
2019-09-25 18:00:00 29.7 9 Oeste 22 Oeste 0 -- -- 32
2019-09-25 17:00:00 29.1 10 Oeste 22 Oeste 0 -- -- 33
2019-09-25 16:00:00 28.6 8 Oeste 18 Oeste 0 -- -- 37
2019-09-25 15:00:00 27.5 9 Oeste 17 Oeste 0 -- -- 46
2019-09-25 14:00:00 26.5 9 Oeste 14 Oeste 0 -- -- 51
2019-09-25 13:00:00 25.3 8 Oeste 13 Sudoeste 0 -- -- 56
2019-09-25 12:00:00 24.2 4 Noroeste 10 Noroeste 0 -- -- 59
2019-09-25 11:00:00 22.5 6 Norte 12 Norte 0 -- -- 62
2019-09-25 10:00:00 20.6 3 Oeste 5 Oeste 0 -- -- 69
2019-09-25 09:00:00 16.9 3 Este 8 Sudeste 0 -- -- 77
2019-09-25 08:00:00 15.2 5 Sudeste 8 Este 0 -- -- 81
2019-09-25 07:00:00 16.5 6 Oeste 12 Sudeste 0 -- -- 76
2019-09-25 06:00:00 16 8 Sudeste 10 Sudeste 0 -- -- 75
2019-09-25 05:00:00 16.1 3 Este 10 Sudeste 0 -- -- 76
2019-09-25 04:00:00 17.1 4 Sudeste 6 Sudeste 0 -- -- 72
2019-09-25 03:00:00 17.3 2 Sudeste 8 Sudeste 0 -- -- 69
2019-09-25 02:00:00 18.4 3 Sudeste 6 Sudeste 0 -- -- 65
2019-09-25 01:00:00 19.8 0 Calma 10 Oeste 0 -- -- 57
2019-09-25 00:00:00 20.8 5 Oeste 14 Sudoeste 0 -- -- 54
2019-09-24 23:00:00 21 9 Oeste 14 Noroeste 0 -- -- 55
2019-09-24 22:00:00 21.5 3 Sur 4 Sur 0 -- -- 51
2019-09-24 21:00:00 24.6 0 Calma 6 Sur 0 -- -- 42
2019-09-24 20:00:00 29.7 4 Sudoeste 14 Sudoeste 0 -- -- 29
2019-09-24 19:00:00 30.9 7 Oeste 15 Oeste 0 -- -- 27
2019-09-24 18:00:00 31.2 9 Oeste 17 Oeste 0 -- -- 28
2019-09-24 17:00:00 31 9 Oeste 15 Oeste 0 -- -- 27
2019-09-24 16:00:00 30.4 6 Oeste 16 Oeste 0 -- -- 28
2019-09-24 15:00:00 30.3 7 Sudoeste 13 Oeste 0 -- -- 30
2019-09-24 14:00:00 28.5 5 Oeste 10 Noroeste 0 -- -- 32
2019-09-24 13:00:00 27 5 Norte 12 Norte 0 -- -- 36
2019-09-24 12:00:00 25.2 5 Norte 10 Norte 0 -- -- 42
2019-09-24 11:00:00 24 2 Norte 10 Este 0 -- -- 46
2019-09-24 10:00:00 21 4 Este 10 Este 0 -- -- 53
2019-09-24 09:00:00 15.8 3 Nordeste 5 Nordeste 0 -- -- 69
2019-09-24 08:00:00 14.9 0 Calma 15 Sudeste 0 -- -- 71
2019-09-24 07:00:00 16.2 13 Sudeste 16 Sudeste 0 -- -- 66
2019-09-24 06:00:00 16.4 10 Sudeste 18 Sudeste 0 -- -- 67
2019-09-24 05:00:00 16.2 9 Sudeste 13 Sudeste 0 -- -- 67
2019-09-24 04:00:00 17.6 9 Sudeste 14 Este 0 -- -- 60
2019-09-24 03:00:00 18.1 11 Sudeste 15 Sudeste 0 -- -- 59
2019-09-24 02:00:00 17.1 5 Sudeste 12 Sudeste 0 -- -- 64
2019-09-24 01:00:00 18.2 9 Sudeste 13 Sudeste 0 -- -- 59
2019-09-24 00:00:00 17.1 4 Este 10 Sudeste 0 -- -- 67
2019-09-23 23:00:00 18.3 8 Sudeste 10 Sudeste 0 -- -- 64
2019-09-23 22:00:00 19.3 0 Calma 8 Sudeste 0 -- -- 62
2019-09-23 21:00:00 21.8 0 Calma 5 Oeste 0 -- -- 53
2019-09-23 20:00:00 26.1 5 Sudoeste 11 Noroeste 0 -- -- 38
2019-09-23 19:00:00 27.4 6 Oeste 14 Oeste 0 -- -- 35
2019-09-23 18:00:00 28.2 11 Oeste 19 Oeste 0 -- -- 34
2019-09-23 17:00:00 28.4 9 Oeste 17 Oeste 0 -- -- 35
2019-09-23 16:00:00 27.6 8 Noroeste 19 Noroeste 0 -- -- 36
2019-09-23 15:00:00 27.3 9 Noroeste 17 Noroeste 0 -- -- 40
2019-09-23 14:00:00 25.5 7 Norte 21 Norte 0 -- -- 47
2019-09-23 13:00:00 24.4 8 Norte 17 Norte 0 -- -- 48
2019-09-23 12:00:00 22.5 9 Noroeste 15 Norte 0 -- -- 57
2019-09-23 11:00:00 19.6 5 Norte 11 Noroeste 0 -- -- 68
2019-09-23 10:00:00 17.3 0 Calma 3 Sudoeste 0 -- -- 82
2019-09-23 09:00:00 14.2 0 Calma 7 Sudeste 0 -- -- 96
2019-09-23 08:00:00 12.2 0 Calma 7 Este 0 -- -- 95
2019-09-23 07:00:00 12.8 3 Este 6 Este 0 -- -- 95
2019-09-23 06:00:00 13.3 6 Sudeste 8 Sudeste 0 -- -- 93
2019-09-23 05:00:00 13.5 4 Sudeste 8 Sudeste 0 -- -- 93
2019-09-23 04:00:00 14.2 3 Sudeste 9 Sudeste 0 -- -- 91
2019-09-23 03:00:00 15.2 2 Sudeste 7 Sudeste 0 -- -- 89
2019-09-23 02:00:00 15.7 0 Calma 10 Este 0 -- -- 84
2019-09-23 01:00:00 16.8 3 Sudeste 8 Oeste 0 -- -- 77
2019-09-23 00:00:00 17.7 2 Oeste 8 Sur 0 -- -- 71
2019-09-22 23:00:00 17.6 2 Sur 8 Sudeste 0 -- -- 75
2019-09-22 22:00:00 18.2 0 Calma 4 Este 0 -- -- 75
2019-09-22 21:00:00 20 0 Calma 5 Oeste 0 -- -- 67
2019-09-22 20:00:00 23.2 4 Sudoeste 13 Sudoeste 0 -- -- 51
2019-09-22 19:00:00 25.2 8 Oeste 20 Oeste 0 -- -- 46
2019-09-22 18:00:00 24.6 12 Oeste 23 Oeste 0 -- -- 53
2019-09-22 17:00:00 25.3 13 Oeste 30 Oeste 0 -- -- 51
2019-09-22 16:00:00 24.1 18 Oeste 28 Oeste 0 -- -- 53
2019-09-22 15:00:00 23 15 Oeste 24 Oeste 0 -- -- 74
2019-09-22 14:00:00 24.3 11 Sudoeste 22 Sudoeste 0 -- -- 64
2019-09-22 13:00:00 21.4 12 Sudoeste 25 Oeste 0 -- -- 81
2019-09-22 12:00:00 21.7 11 Sudoeste 21 Sudoeste 0 -- -- 74
2019-09-22 11:00:00 20.4 9 Sudeste 14 Sudeste 0 -- -- 82
2019-09-22 10:00:00 19.2 6 Sudeste 17 Sudoeste 0 -- -- 87
2019-09-22 09:00:00 17.8 8 Sudeste 15 Sudeste 0 -- -- 93
2019-09-22 08:00:00 17.3 12 Sudeste 17 Sudeste 0 -- -- 93
2019-09-22 07:00:00 17.3 6 Sudeste 15 Sudeste 0 -- -- 92
2019-09-22 06:00:00 17.2 12 Sudeste 15 Sudeste 0 -- -- 92
2019-09-22 05:00:00 17.6 3 Sur 8 Sur 0 -- -- 90
2019-09-22 04:00:00 18.3 3 Sur 5 Sur 0 -- -- 91
2019-09-22 03:00:00 19 2 Sudeste 4 Sudeste 0 -- -- 91
2019-09-22 02:00:00 19 0 Calma 7 Oeste 0.2 -- -- 91
2019-09-22 01:00:00 19.4 4 Oeste 6 Oeste 0.2 -- -- 89
2019-09-22 00:00:00 19.8 3 Sudeste 8 Oeste 0 -- -- 87
2019-09-21 23:00:00 20.1 5 Oeste 9 Sudoeste 0 -- -- 85
2019-09-21 22:00:00 20.6 6 Oeste 18 Oeste 0 -- -- 80
2019-09-21 21:00:00 21.9 11 Oeste 18 Sudoeste 0 -- -- 66
2019-09-21 20:00:00 22.8 9 Oeste 19 Oeste 0 -- -- 61
2019-09-21 19:00:00 23.7 15 Oeste 21 Oeste 0 -- -- 57
2019-09-21 18:00:00 24.8 12 Oeste 20 Sudoeste 0 -- -- 53
2019-09-21 17:00:00 24.2 10 Oeste 21 Oeste 0 -- -- 64
2019-09-21 16:00:00 23.6 6 Noroeste 16 Oeste 0 -- -- 71
2019-09-21 15:00:00 23.2 9 Oeste 17 Oeste 0 -- -- 74
2019-09-21 14:00:00 22.9 8 Oeste 14 Oeste 0 -- -- 76
2019-09-21 13:00:00 22.6 5 Oeste 15 Oeste 0 -- -- 78
2019-09-21 12:00:00 21.5 5 Noroeste 9 Oeste 0 -- -- 82
2019-09-21 11:00:00 20.6 2 Oeste 6 Oeste 0 -- -- 84
2019-09-21 10:00:00 19.9 3 Este 4 Este 0 -- -- 87
2019-09-21 09:00:00 19.1 0 Calma 4 Este 0 -- -- 89
2019-09-21 08:00:00 18.8 4 Este 5 Este 0 -- -- 91
2019-09-21 07:00:00 18.7 2 Este 5 Oeste 0 -- -- 91
2019-09-21 06:00:00 18.7 4 Oeste 6 Oeste 0 -- -- 90
2019-09-21 05:00:00 18.5 4 Oeste 8 Oeste 0 -- -- 90
2019-09-21 04:00:00 18.7 3 Oeste 8 Oeste 0 -- -- 88
2019-09-21 03:00:00 19 3 Sudoeste 20 Oeste 0.2 -- -- 88
2019-09-21 02:00:00 19.8 12 Sudoeste 19 Oeste 0 -- -- 89
2019-09-21 01:00:00 20.9 7 Sudoeste 14 Sur 0 -- -- 84
2019-09-21 00:00:00 20.9 7 Sudoeste 15 Sudoeste 0 -- -- 83
2019-09-20 23:00:00 21.2 9 Sudoeste 17 Sudoeste 0 -- -- 81
2019-09-20 22:00:00 21.3 7 Sur 14 Sur 0 -- -- 82
2019-09-20 21:00:00 21.3 7 Sur 16 Sudoeste 0 -- -- 85
2019-09-20 20:00:00 23.9 12 Sur 19 Sur 0 -- -- 70
2019-09-20 19:00:00 24.5 12 Sur 22 Sur 0 -- -- 64
2019-09-20 18:00:00 25.1 13 Sudoeste 27 Sur 0 -- -- 61
2019-09-20 17:00:00 25.7 13 Sur 26 Sur 0 -- -- 58
2019-09-20 16:00:00 26.3 17 Sur 31 Sudoeste 0 -- -- 55
2019-09-20 15:00:00 26.8 12 Sur 27 Sudeste 0 -- -- 52
2019-09-20 14:00:00 26.9 12 Sur 24 Sur 0 -- -- 52
2019-09-20 13:00:00 25.8 7 Sudeste 13 Este 0 -- -- 58
2019-09-20 12:00:00 23.9 8 Este 13 Este 0 -- -- 60
2019-09-20 11:00:00 21.7 7 Nordeste 10 Norte 0 -- -- 66
2019-09-20 10:00:00 20 5 Nordeste 9 Nordeste 0 -- -- 72
2019-09-20 09:00:00 17.5 0 Calma 5 Sudeste 0 -- -- 88
2019-09-20 08:00:00 16.9 0 Calma 5 Este 0 -- -- 88
2019-09-20 07:00:00 17.1 0 Calma 6 Nordeste 0 -- -- 85
2019-09-20 06:00:00 17.2 5 Este 7 Este 0 -- -- 86
2019-09-20 05:00:00 17.5 4 Este 7 Este 0 -- -- 84
2019-09-20 04:00:00 18.4 4 Este 6 Este 0 -- -- 80
2019-09-20 03:00:00 19.3 0 Calma 4 Este 0 -- -- 78
2019-09-20 02:00:00 20 0 Calma 4 Sur 0 -- -- 75
2019-09-20 01:00:00 20.8 3 Sudoeste 8 Sudoeste 0 -- -- 71
2019-09-20 00:00:00 21.5 4 Sudoeste 7 Sudoeste 0 -- -- 65
2019-09-19 23:00:00 22.2 3 Sudoeste 9 Sudeste 0 -- -- 66
2019-09-19 22:00:00 22.4 2 Nordeste 8 Sudeste 0 -- -- 68
2019-09-19 21:00:00 24.8 2 Sur 5 Oeste 0 -- -- 60
2019-09-19 20:00:00 27.4 5 Oeste 15 Oeste 0 -- -- 51
2019-09-19 19:00:00 28.9 10 Oeste 16 Oeste 0 -- -- 43
2019-09-19 18:00:00 29.8 12 Oeste 17 Oeste 0 -- -- 41
2019-09-19 17:00:00 30 9 Oeste 20 Oeste 0 -- -- 40
2019-09-19 16:00:00 29.5 10 Oeste 23 Norte 0 -- -- 42
2019-09-19 15:00:00 28.4 6 Oeste 13 Oeste 0 -- -- 46
2019-09-19 14:00:00 27.1 7 Oeste 13 Oeste 0 -- -- 53
2019-09-19 13:00:00 25.8 6 Oeste 13 Noroeste 0 -- -- 55
2019-09-19 12:00:00 23.8 5 Noroeste 10 Norte 0 -- -- 57
2019-09-19 11:00:00 21.5 4 Oeste 6 Oeste 0 -- -- 67
2019-09-19 10:00:00 19.5 0 Calma 3 Nordeste 0 -- -- 77
2019-09-19 09:00:00 16.2 3 Nordeste 8 Este 0 -- -- 92
2019-09-19 08:00:00 15.1 4 Este 6 Este 0 -- -- 93
2019-09-19 07:00:00 15.8 4 Sudeste 9 Sudeste 0 -- -- 92
2019-09-19 06:00:00 16.1 6 Sudeste 12 Este 0 -- -- 92
2019-09-19 05:00:00 16 7 Sudeste 9 Sudeste 0 -- -- 92
2019-09-19 04:00:00 16.6 2 Sudeste 8 Oeste 0 -- -- 88
2019-09-19 03:00:00 17.3 2 Este 7 Oeste 0 -- -- 87
2019-09-19 02:00:00 17.6 4 Sudeste 5 Este 0 -- -- 83
2019-09-19 01:00:00 19 2 Noroeste 10 Sudoeste 0 -- -- 75
2019-09-19 00:00:00 19.4 3 Oeste 9 Oeste 0 -- -- 72
2019-09-18 23:00:00 20.4 4 Sudoeste 9 Sudoeste 0 -- -- 67
2019-09-18 22:00:00 20.9 4 Sudeste 5 Sudeste 0 -- -- 71
2019-09-18 21:00:00 23.3 3 Sur 6 Sudoeste 0 -- -- 62
2019-09-18 20:00:00 26.9 0 Calma 15 Oeste 0 -- -- 48
2019-09-18 19:00:00 28.5 9 Oeste 19 Oeste 0 -- -- 43
2019-09-18 18:00:00 28.4 9 Oeste 18 Sudoeste 0 -- -- 49
2019-09-18 17:00:00 28.3 10 Oeste 15 Oeste 0 -- -- 51
2019-09-18 16:00:00 28.2 8 Oeste 14 Sudoeste 0 -- -- 49
2019-09-18 15:00:00 27.9 7 Oeste 16 Oeste 0 -- -- 52
2019-09-18 14:00:00 26.1 6 Oeste 14 Noroeste 0 -- -- 62
2019-09-18 13:00:00 24.6 6 Norte 13 Norte 0 -- -- 67
2019-09-18 12:00:00 23.1 9 Noroeste 15 Oeste 0 -- -- 73
2019-09-18 11:00:00 22.1 7 Noroeste 12 Oeste 0 -- -- 80
2019-09-18 10:00:00 21.1 2 Oeste 5 Oeste 0 -- -- 85
2019-09-18 09:00:00 18.1 0 Calma 7 Este 0 -- -- 95
2019-09-18 08:00:00 17.2 5 Este 9 Sudeste 0 -- -- 95
2019-09-18 07:00:00 17.4 6 Sudeste 9 Sudeste 0 -- -- 94
2019-09-18 06:00:00 18.2 3 Sudeste 8 Este 0 -- -- 92
2019-09-18 05:00:00 18.6 5 Sudeste 8 Sudeste 0 -- -- 91
2019-09-18 04:00:00 19.3 3 Sur 11 Sur 0 -- -- 89
2019-09-18 03:00:00 19.8 3 Sudoeste 9 Sudoeste 0 -- -- 88
2019-09-18 02:00:00 20.3 7 Sur 16 Sur 0 -- -- 86
2019-09-18 01:00:00 21 7 Sudoeste 13 Sudeste 0 -- -- 82
2019-09-18 00:00:00 21.9 12 Sur 15 Sur 0 -- -- 72
2019-09-17 23:00:00 22.4 13 Sudeste 18 Sudeste 0 -- -- 74
2019-09-17 22:00:00 23.5 13 Sudeste 18 Sudeste 0 -- -- 64
2019-09-17 21:00:00 24.2 9 Sudeste 12 Sudeste 0 -- -- 65